createdAt,value
2023-02-06T00:00:54.138Z,103627.53
2023-02-06T00:03:20.754Z,103637.13
2023-02-06T00:05:58.756Z,103626.38
2023-02-06T00:08:26.868Z,103624.22
2023-02-06T00:10:54.077Z,103620.69
2023-02-06T00:13:20.864Z,103616.41
2023-02-06T00:15:47.415Z,103612.19
2023-02-06T00:18:13.860Z,103611.59
2023-02-06T00:20:40.365Z,103621.22
2023-02-06T00:23:06.729Z,103624.91
2023-02-06T00:25:33.222Z,103617.41
2023-02-06T00:27:59.805Z,103627.47
2023-02-06T00:30:26.474Z,103626.88
2023-02-06T00:32:52.943Z,103615.69
2023-02-06T00:35:19.640Z,103606.19
2023-02-06T00:37:46.014Z,103611.56
2023-02-06T00:40:12.365Z,103604.63
2023-02-06T00:42:38.877Z,103601.19
2023-02-06T00:45:05.906Z,103597.09
2023-02-06T00:47:32.343Z,103607.56
2023-02-06T00:49:58.825Z,103612.69
2023-02-06T00:52:25.202Z,103605.31
2023-02-06T00:54:51.654Z,103609.00
2023-02-06T00:57:18.195Z,103609.00
2023-02-06T00:59:44.575Z,103610.25
2023-02-06T01:02:11.054Z,103610.38
2023-02-06T01:04:37.531Z,103616.00
2023-02-06T01:07:03.908Z,103613.91
2023-02-06T01:09:30.475Z,103618.03
2023-02-06T01:11:57.062Z,103620.56
2023-02-06T01:14:23.680Z,103619.31
2023-02-06T01:16:50.041Z,103621.25
2023-02-06T01:19:16.704Z,103622.13
2023-02-06T01:21:43.095Z,103632.88
2023-02-06T01:24:09.478Z,103621.13
2023-02-06T01:26:35.953Z,103620.72
2023-02-06T01:29:03.159Z,103627.75
2023-02-06T01:31:30.286Z,103635.28
2023-02-06T01:33:59.301Z,103622.84
2023-02-06T01:36:26.260Z,103622.97
2023-02-06T01:38:52.929Z,103626.66
2023-02-06T01:41:22.813Z,103624.22
2023-02-06T01:44:11.169Z,103625.94
2023-02-06T01:46:39.157Z,103628.16
2023-02-06T01:49:08.672Z,103635.75
2023-02-06T01:51:35.670Z,103633.66
2023-02-06T01:54:05.318Z,103622.19
2023-02-06T01:56:37.101Z,103633.88
2023-02-06T01:59:05.261Z,103632.44
2023-02-06T02:01:33.487Z,103629.50
2023-02-06T02:04:07.213Z,103639.81
2023-02-06T02:06:35.155Z,103631.03
2023-02-06T02:09:03.689Z,103637.66
2023-02-06T02:11:36.671Z,103626.19
2023-02-06T02:14:06.307Z,103629.63
2023-02-06T02:16:38.996Z,103635.22
2023-02-06T02:19:40.267Z,103630.09
2023-02-06T02:22:31.357Z,103627.34
2023-02-06T02:25:35.563Z,103620.00
2023-02-06T02:28:39.323Z,103612.66
2023-02-06T02:31:38.908Z,103607.28
2023-02-06T02:34:32.953Z,103607.81
2023-02-06T02:37:33.575Z,103603.16
2023-02-06T02:40:28.439Z,103606.72
2023-02-06T02:43:04.642Z,103603.16
2023-02-06T02:45:50.628Z,103610.25
2023-02-06T02:48:24.296Z,103607.81
2023-02-06T02:50:54.183Z,103611.50
2023-02-06T02:53:21.188Z,103608.69
2023-02-06T02:55:48.001Z,103616.03
2023-02-06T02:58:18.242Z,103611.50
2023-02-06T03:00:58.651Z,103608.09
2023-02-06T03:03:28.967Z,103622.75
2023-02-06T03:06:13.570Z,103616.38
2023-02-06T03:08:58.542Z,103621.66
2023-02-06T03:11:25.305Z,103623.59
2023-02-06T03:14:06.240Z,103630.66
2023-02-06T03:16:45.378Z,103631.41
2023-02-06T03:19:14.494Z,103623.59
2023-02-06T03:21:42.788Z,103634.75
2023-02-06T03:24:14.457Z,103635.00
2023-02-06T03:26:43.356Z,103650.16
2023-02-06T03:29:12.952Z,103646.97
2023-02-06T03:31:46.362Z,103641.59
2023-02-06T03:34:16.790Z,103641.84
2023-02-06T03:36:43.644Z,103642.13
2023-02-06T03:39:10.153Z,103645.44
2023-02-06T03:41:38.930Z,103643.59
2023-02-06T03:44:09.282Z,103638.94
2023-02-06T03:46:38.527Z,103640.19
2023-02-06T03:49:07.972Z,103637.50
2023-02-06T03:51:46.568Z,103644.81
2023-02-06T03:54:16.896Z,103642.25
2023-02-06T03:56:48.695Z,103636.03
2023-02-06T03:59:15.218Z,103637.50
2023-02-06T04:01:49.220Z,103638.59
2023-02-06T04:04:18.249Z,103631.19
2023-02-06T04:06:44.912Z,103638.50
2023-02-06T04:09:11.720Z,103640.47
2023-02-06T04:11:38.450Z,103633.03
2023-02-06T04:14:04.878Z,103634.75
2023-02-06T04:16:31.293Z,103634.16
2023-02-06T04:18:57.808Z,103634.88
2023-02-06T04:21:24.274Z,103634.66
2023-02-06T04:23:50.668Z,103636.00
2023-02-06T04:26:17.158Z,103641.25
2023-02-06T04:28:43.618Z,103639.78
2023-02-06T04:31:10.140Z,103643.22
2023-02-06T04:33:36.553Z,103647.47
2023-02-06T04:36:03.082Z,103638.06
2023-02-06T04:38:29.438Z,103646.50
2023-02-06T04:40:55.796Z,103638.72
2023-02-06T04:43:22.315Z,103637.00
2023-02-06T04:45:48.695Z,103633.56
2023-02-06T04:48:15.156Z,103631.47
2023-02-06T04:50:41.595Z,103629.28
2023-02-06T04:53:07.986Z,103634.78
2023-02-06T04:55:35.633Z,103648.56
2023-02-06T04:58:02.247Z,103658.03
2023-02-06T05:00:28.608Z,103661.94
2023-02-06T05:02:55.058Z,103664.38
2023-02-06T05:05:21.516Z,103674.59
2023-02-06T05:07:48.091Z,103665.94
2023-02-06T05:10:14.982Z,103666.53
2023-02-06T05:12:41.529Z,103681.66
2023-02-06T05:15:08.822Z,103683.72
2023-02-06T05:17:35.533Z,103669.94
2023-02-06T05:20:02.013Z,103659.84
2023-02-06T05:22:28.419Z,103659.00
2023-02-06T05:24:54.878Z,103656.09
2023-02-06T05:27:21.736Z,103641.44
2023-02-06T05:29:48.162Z,103646.81
2023-02-06T05:32:14.614Z,103647.78
2023-02-06T05:34:41.118Z,103654.59
2023-02-06T05:37:07.723Z,103658.78
2023-02-06T05:39:34.153Z,103653.16
2023-02-06T05:42:00.709Z,103651.59
2023-02-06T05:44:27.345Z,103655.25
2023-02-06T05:46:54.003Z,103644.88
2023-02-06T05:49:20.556Z,103646.34
2023-02-06T05:51:46.916Z,103647.22
2023-02-06T05:54:15.292Z,103645.28
2023-02-06T05:56:41.844Z,103647.13
2023-02-06T05:59:08.334Z,103650.03
2023-02-06T06:01:34.696Z,103641.97
2023-02-06T06:04:01.485Z,103637.97
2023-02-06T06:06:28.055Z,103645.66
2023-02-06T06:08:54.575Z,103635.03
2023-02-06T06:11:21.924Z,103642.47
2023-02-06T06:13:48.246Z,103636.25
2023-02-06T06:16:14.706Z,103639.91
2023-02-06T06:18:41.316Z,103629.66
2023-02-06T06:21:08.220Z,103637.34
2023-02-06T06:23:34.607Z,103636.63
2023-02-06T06:26:01.037Z,103633.19
2023-02-06T06:28:27.434Z,103641.25
2023-02-06T06:31:02.080Z,103635.38
2023-02-06T06:33:29.105Z,103636.88
2023-02-06T06:35:55.711Z,103629.78
2023-02-06T06:38:22.106Z,103642.47
2023-02-06T06:40:48.570Z,103645.66
2023-02-06T06:43:14.981Z,103641.25
2023-02-06T06:45:41.429Z,103647.47
2023-02-06T06:48:07.836Z,103647.47
2023-02-06T06:50:34.263Z,103654.44
2023-02-06T06:53:00.817Z,103648.81
2023-02-06T06:55:27.324Z,103657.47
2023-02-06T06:57:53.751Z,103643.22
2023-02-06T07:00:20.372Z,103643.22
2023-02-06T07:02:47.078Z,103645.84
2023-02-06T07:05:13.679Z,103639.41
2023-02-06T07:07:40.117Z,103650.03
2023-02-06T07:10:08.559Z,103645.13
2023-02-06T07:12:35.500Z,103635.38
2023-02-06T07:15:02.252Z,103638.53
2023-02-06T07:17:28.610Z,103643.66
2023-02-06T07:19:54.976Z,103635.34
2023-02-06T07:22:22.082Z,103646.59
2023-02-06T07:24:48.884Z,103642.44
2023-02-06T07:27:15.279Z,103648.81
2023-02-06T07:29:41.749Z,103650.75
2023-02-06T07:32:08.217Z,103652.34
2023-02-06T07:34:35.779Z,103646.97
2023-02-06T07:37:02.970Z,103643.28
2023-02-06T07:39:29.367Z,103650.88
2023-02-06T07:41:55.708Z,103661.69
2023-02-06T07:44:22.110Z,103657.75
2023-02-06T07:46:48.481Z,103653.59
2023-02-06T07:49:15.443Z,103649.97
2023-02-06T07:51:44.011Z,103642.34
2023-02-06T07:54:11.812Z,103647.22
2023-02-06T07:56:39.248Z,103644.28
2023-02-06T07:59:07.488Z,103640.84
2023-02-06T08:01:33.927Z,103642.63
2023-02-06T08:04:00.339Z,103647.22
2023-02-06T08:06:26.996Z,103635.97
2023-02-06T08:08:57.024Z,103631.81
2023-02-06T08:11:25.981Z,103634.97
2023-02-06T08:13:52.543Z,103633.28
2023-02-06T08:16:20.896Z,103637.59
2023-02-06T08:18:47.572Z,103642.13
2023-02-06T08:21:18.841Z,103638.75
2023-02-06T08:23:45.460Z,103633.72
2023-02-06T08:26:15.538Z,103639.69
2023-02-06T08:28:43.829Z,103638.56
2023-02-06T08:31:38.400Z,103640.66
2023-02-06T08:34:06.434Z,103653.59
2023-02-06T08:36:33.405Z,103657.59
2023-02-06T08:39:01.771Z,103660.56
2023-02-06T08:41:30.942Z,103658.31
2023-02-06T08:43:59.203Z,103648.13
2023-02-06T08:46:28.490Z,103639.09
2023-02-06T08:49:02.974Z,103642.38
2023-02-06T08:51:29.543Z,103652.34
2023-02-06T08:53:57.623Z,103648.22
2023-02-06T08:56:24.626Z,103651.22
2023-02-06T08:58:51.535Z,103653.78
2023-02-06T09:01:18.180Z,103648.41
2023-02-06T09:03:45.382Z,103648.84
2023-02-06T09:06:13.048Z,103655.22
2023-02-06T09:08:40.402Z,103657.34
2023-02-06T09:11:18.387Z,103656.50
2023-02-06T09:13:49.570Z,103658.19
2023-02-06T09:16:18.327Z,103660.50
2023-02-06T09:18:45.205Z,103656.66
2023-02-06T09:21:21.045Z,103658.91
2023-02-06T09:23:50.247Z,103662.69
2023-02-06T09:26:19.894Z,103659.41
2023-02-06T09:28:46.896Z,103661.84
2023-02-06T09:31:13.502Z,103661.19
2023-02-06T09:33:40.471Z,103661.47
2023-02-06T09:36:13.919Z,103662.19
2023-02-06T09:38:42.834Z,103655.25
2023-02-06T09:41:30.083Z,103652.13
2023-02-06T09:44:04.129Z,103656.00
2023-02-06T09:46:33.950Z,103653.16
2023-02-06T09:49:06.863Z,103660.09
2023-02-06T09:52:15.186Z,103657.88
2023-02-06T09:55:06.561Z,103647.50
2023-02-06T09:57:39.148Z,103641.28
2023-02-06T10:00:24.803Z,103644.97
2023-02-06T10:03:23.685Z,103637.19
2023-02-06T10:06:12.560Z,103645.84
2023-02-06T10:09:02.089Z,103646.88
2023-02-06T10:11:51.288Z,103642.88
2023-02-06T10:14:32.904Z,103631.25
2023-02-06T10:17:26.006Z,103631.06
2023-02-06T10:20:18.484Z,103629.56
2023-02-06T10:22:54.404Z,103638.34
2023-02-06T10:25:37.771Z,103635.88
2023-02-06T10:28:27.185Z,103632.91
2023-02-06T10:31:19.957Z,103621.09
2023-02-06T10:33:57.716Z,103623.91
2023-02-06T10:36:52.211Z,103629.72
2023-02-06T10:39:49.147Z,103624.16
2023-02-06T10:42:32.210Z,103619.97
2023-02-06T10:45:24.687Z,103624.28
2023-02-06T10:47:59.491Z,103605.81
2023-02-06T10:50:28.864Z,103606.25
2023-02-06T10:52:58.483Z,103597.53
2023-02-06T10:55:28.218Z,103591.22
2023-02-06T10:58:12.925Z,103588.66
2023-02-06T11:00:40.418Z,103585.38
2023-02-06T11:03:15.655Z,103576.34
2023-02-06T11:05:42.099Z,103573.84
2023-02-06T11:08:16.958Z,103572.88
2023-02-06T11:10:43.499Z,103575.19
2023-02-06T11:13:14.667Z,103578.59
2023-02-06T11:15:52.854Z,103577.69
2023-02-06T11:18:24.059Z,103574.69
2023-02-06T11:20:51.409Z,103565.28
2023-02-06T11:23:22.954Z,103560.56
2023-02-06T11:26:06.048Z,103568.03
2023-02-06T11:28:34.686Z,103562.16
2023-02-06T11:31:07.482Z,103563.94
2023-02-06T11:33:46.452Z,103552.88
2023-02-06T11:36:28.091Z,103551.44
2023-02-06T11:39:02.059Z,103556.63
2023-02-06T11:41:30.323Z,103538.47
2023-02-06T11:44:02.626Z,103541.94
2023-02-06T11:46:32.513Z,103533.75
2023-02-06T11:49:23.035Z,103542.22
2023-02-06T11:51:51.755Z,103538.81
2023-02-06T11:54:35.510Z,103539.38
2023-02-06T11:57:08.005Z,103536.25
2023-02-06T11:59:37.251Z,103536.53
2023-02-06T12:02:30.192Z,103531.34
2023-02-06T12:05:13.454Z,103529.28
2023-02-06T12:07:46.047Z,103538.28
2023-02-06T12:10:20.777Z,103536.31
2023-02-06T12:12:54.094Z,103539.03
2023-02-06T12:15:45.297Z,103534.84
2023-02-06T12:18:17.408Z,103527.81
2023-02-06T12:21:06.650Z,103519.69
2023-02-06T12:24:05.247Z,103509.72
2023-02-06T12:26:34.879Z,103509.69
2023-02-06T12:29:08.119Z,103516.03
2023-02-06T12:31:50.617Z,103522.75
2023-02-06T12:34:22.078Z,103515.09
2023-02-06T12:37:10.791Z,103510.22
2023-02-06T12:39:37.328Z,103507.63
2023-02-06T12:42:31.978Z,103502.00
2023-02-06T12:45:32.399Z,103494.47
2023-02-06T12:48:12.294Z,103489.72
2023-02-06T12:50:46.502Z,103479.88
2023-02-06T12:53:20.423Z,103488.28
2023-02-06T12:56:04.560Z,103478.38
2023-02-06T12:58:58.739Z,103473.31
2023-02-06T13:01:47.017Z,103486.94
2023-02-06T13:04:18.754Z,103480.47
2023-02-06T13:07:09.262Z,103482.91
2023-02-06T13:09:46.660Z,103481.03
2023-02-06T13:12:21.726Z,103489.94
2023-02-06T13:14:53.466Z,103479.94
2023-02-06T13:17:32.576Z,103476.69
2023-02-06T13:20:08.932Z,103467.88
2023-02-06T13:22:38.596Z,103469.53
2023-02-06T13:25:30.108Z,103466.28
2023-02-06T13:28:01.852Z,103474.03
2023-02-06T13:30:31.547Z,103473.50
2023-02-06T13:33:10.802Z,103469.13
2023-02-06T13:35:55.196Z,103469.72
2023-02-06T13:38:24.342Z,103461.09
2023-02-06T13:41:12.682Z,103468.81
2023-02-06T13:43:56.093Z,103467.44
2023-02-06T13:46:33.400Z,103466.91
2023-02-06T13:49:22.178Z,103457.13
2023-02-06T13:52:15.643Z,103464.19
2023-02-06T13:54:55.370Z,103463.63
2023-02-06T13:57:49.586Z,103457.28
2023-02-06T14:00:22.308Z,103449.25
2023-02-06T14:02:56.438Z,103454.03
2023-02-06T14:05:30.810Z,103447.19
2023-02-06T14:08:18.820Z,103439.63
2023-02-06T14:11:04.918Z,103452.34
2023-02-06T14:13:44.127Z,103438.16
2023-02-06T14:16:35.287Z,103437.88
2023-02-06T14:19:25.661Z,103440.59
2023-02-06T14:21:56.784Z,103440.38
2023-02-06T14:24:38.161Z,103439.03
2023-02-06T14:27:23.527Z,103436.09
2023-02-06T14:30:18.412Z,103444.53
2023-02-06T14:32:54.226Z,103445.25
2023-02-06T14:36:02.934Z,103438.13
2023-02-06T14:39:02.170Z,103435.25
2023-02-06T14:41:31.609Z,103444.47
2023-02-06T14:43:59.486Z,103433.34
2023-02-06T14:46:27.325Z,103444.00
2023-02-06T14:48:57.252Z,103450.91
2023-02-06T14:51:31.083Z,103443.81
2023-02-06T14:54:04.121Z,103447.59
2023-02-06T14:56:33.797Z,103447.81
2023-02-06T14:59:12.391Z,103442.41
2023-02-06T15:01:40.079Z,103441.72
2023-02-06T15:04:15.859Z,103442.03
2023-02-06T15:07:03.048Z,103442.97
2023-02-06T15:09:31.556Z,103440.53
2023-02-06T15:12:01.137Z,103451.50
2023-02-06T15:14:34.270Z,103451.66
2023-02-06T15:17:02.676Z,103455.22
2023-02-06T15:19:35.591Z,103445.72
2023-02-06T15:22:13.036Z,103445.19
2023-02-06T15:25:04.854Z,103451.75
2023-02-06T15:27:34.169Z,103450.38
2023-02-06T15:30:02.336Z,103455.41
2023-02-06T15:32:38.826Z,103453.31
2023-02-06T15:35:19.918Z,103448.75
2023-02-06T15:37:46.562Z,103447.09
2023-02-06T15:40:20.872Z,103442.38
2023-02-06T15:42:48.718Z,103438.19
2023-02-06T15:45:22.464Z,103436.78
2023-02-06T15:47:51.445Z,103440.81
2023-02-06T15:50:25.187Z,103433.28
2023-02-06T15:52:51.782Z,103430.97
2023-02-06T15:55:37.745Z,103434.34
2023-02-06T15:58:05.323Z,103428.69
2023-02-06T16:00:36.973Z,103431.09
2023-02-06T16:03:07.750Z,103426.31
2023-02-06T16:05:37.965Z,103423.28
2023-02-06T16:08:05.281Z,103422.81
2023-02-06T16:10:37.615Z,103422.81
2023-02-06T16:13:11.002Z,103417.63
2023-02-06T16:15:39.698Z,103418.59
2023-02-06T16:18:24.562Z,103427.38
2023-02-06T16:20:51.269Z,103427.06
2023-02-06T16:23:23.852Z,103421.69
2023-02-06T16:26:12.923Z,103424.25
2023-02-06T16:29:02.014Z,103421.00
2023-02-06T16:31:30.908Z,103421.81
2023-02-06T16:34:03.282Z,103414.22
2023-02-06T16:36:32.342Z,103417.09
2023-02-06T16:39:03.979Z,103418.94
2023-02-06T16:41:34.694Z,103423.38
2023-02-06T16:44:02.444Z,103424.75
2023-02-06T16:46:29.380Z,103426.22
2023-02-06T16:48:56.530Z,103409.66
2023-02-06T16:51:25.929Z,103421.28
2023-02-06T16:53:52.990Z,103418.25
2023-02-06T16:56:21.659Z,103422.81
2023-02-06T16:58:48.451Z,103421.16
2023-02-06T17:01:25.283Z,103419.06
2023-02-06T17:03:52.698Z,103420.16
2023-02-06T17:06:23.623Z,103414.47
2023-02-06T17:08:52.000Z,103420.41
2023-02-06T17:11:18.565Z,103408.28
2023-02-06T17:13:45.235Z,103408.63
2023-02-06T17:16:17.573Z,103413.50
2023-02-06T17:18:44.503Z,103420.28
2023-02-06T17:21:20.847Z,103406.28
2023-02-06T17:23:49.306Z,103400.38
2023-02-06T17:26:21.832Z,103407.06
2023-02-06T17:28:48.845Z,103413.78
2023-02-06T17:31:15.860Z,103412.94
2023-02-06T17:33:42.340Z,103419.53
2023-02-06T17:36:16.778Z,103425.91
2023-02-06T17:38:43.709Z,103423.56
2023-02-06T17:41:10.303Z,103428.41
2023-02-06T17:43:37.549Z,103433.72
2023-02-06T17:46:05.122Z,103429.16
2023-02-06T17:48:36.407Z,103430.47
2023-02-06T17:51:04.377Z,103424.13
2023-02-06T17:53:30.952Z,103426.28
2023-02-06T17:55:57.357Z,103427.47
2023-02-06T17:58:23.846Z,103429.03
2023-02-06T18:00:50.408Z,103424.84
2023-02-06T18:03:18.273Z,103424.53
2023-02-06T18:05:47.039Z,103415.34
2023-02-06T18:08:13.609Z,103406.88
2023-02-06T18:10:39.979Z,103412.56
2023-02-06T18:13:06.582Z,103414.88
2023-02-06T18:15:33.112Z,103412.56
2023-02-06T18:18:00.114Z,103413.34
2023-02-06T18:20:26.611Z,103398.31
2023-02-06T18:22:53.239Z,103415.56
2023-02-06T18:25:19.679Z,103418.00
2023-02-06T18:27:46.320Z,103418.00
2023-02-06T18:30:14.592Z,103421.16
2023-02-06T18:32:41.416Z,103413.31
2023-02-06T18:35:09.331Z,103430.09
2023-02-06T18:37:35.858Z,103427.13
2023-02-06T18:40:02.766Z,103425.00
2023-02-06T18:42:48.024Z,103430.34
2023-02-06T18:45:14.496Z,103428.94
2023-02-06T18:47:42.357Z,103426.44
2023-02-06T18:50:10.761Z,103420.47
2023-02-06T18:52:37.244Z,103425.31
2023-02-06T18:55:04.534Z,103422.03
2023-02-06T18:57:31.068Z,103435.53
2023-02-06T18:59:58.748Z,103439.97
2023-02-06T19:02:25.729Z,103432.13
2023-02-06T19:04:52.301Z,103432.44
2023-02-06T19:07:18.788Z,103431.44
2023-02-06T19:09:45.220Z,103433.28
2023-02-06T19:12:11.751Z,103426.50
2023-02-06T19:14:39.847Z,103429.66
2023-02-06T19:17:06.253Z,103434.59
2023-02-06T19:19:32.779Z,103438.13
2023-02-06T19:21:59.214Z,103434.16
2023-02-06T19:24:27.738Z,103432.19
2023-02-06T19:26:54.271Z,103435.59
2023-02-06T19:29:34.428Z,103434.16
2023-02-06T19:32:03.616Z,103430.50
2023-02-06T19:34:30.276Z,103426.25
2023-02-06T19:36:56.770Z,103421.97
2023-02-06T19:39:23.152Z,103423.13
2023-02-06T19:41:49.529Z,103420.16
2023-02-06T19:44:16.106Z,103432.75
2023-02-06T19:46:42.487Z,103437.28
2023-02-06T19:49:11.135Z,103443.53
2023-02-06T19:51:41.756Z,103441.97
2023-02-06T19:54:08.385Z,103457.41
2023-02-06T19:56:39.320Z,103465.94
2023-02-06T19:59:19.451Z,103457.16
2023-02-06T20:01:54.546Z,103461.25
2023-02-06T20:04:23.908Z,103470.31
2023-02-06T20:06:51.104Z,103460.25
2023-02-06T20:09:19.507Z,103458.56
2023-02-06T20:11:46.159Z,103466.75
2023-02-06T20:14:12.742Z,103471.25
2023-02-06T20:16:41.400Z,103480.59
2023-02-06T20:19:13.986Z,103479.72
2023-02-06T20:21:43.279Z,103483.94
2023-02-06T20:24:13.435Z,103474.59
2023-02-06T20:26:42.069Z,103484.34
2023-02-06T20:29:15.971Z,103473.63
2023-02-06T20:31:42.499Z,103471.59
2023-02-06T20:34:09.128Z,103459.75
2023-02-06T20:36:35.502Z,103468.50
2023-02-06T20:39:02.291Z,103472.59
2023-02-06T20:41:31.353Z,103468.19
2023-02-06T20:43:59.456Z,103474.13
2023-02-06T20:46:29.567Z,103467.91
2023-02-06T20:48:58.650Z,103466.78
2023-02-06T20:51:26.001Z,103474.06
2023-02-06T20:53:53.457Z,103478.22
2023-02-06T20:56:20.957Z,103476.50
2023-02-06T20:58:49.305Z,103477.22
2023-02-06T21:01:18.195Z,103470.28
2023-02-06T21:03:46.381Z,103464.31
2023-02-06T21:06:13.968Z,103461.72
2023-02-06T21:08:41.458Z,103465.84
2023-02-06T21:11:08.758Z,103464.19
2023-02-06T21:13:35.296Z,103465.91
2023-02-06T21:16:02.355Z,103458.63
2023-02-06T21:18:31.011Z,103449.25
2023-02-06T21:21:06.537Z,103444.00
2023-02-06T21:23:33.375Z,103445.53
2023-02-06T21:25:59.766Z,103449.69
2023-02-06T21:28:26.386Z,103452.50
2023-02-06T21:31:00.330Z,103443.41
2023-02-06T21:33:26.926Z,103439.41
2023-02-06T21:35:53.513Z,103438.88
2023-02-06T21:38:20.770Z,103432.38
2023-02-06T21:40:47.305Z,103431.66
2023-02-06T21:43:15.172Z,103438.56
2023-02-06T21:45:44.102Z,103440.19
2023-02-06T21:48:10.476Z,103448.28
2023-02-06T21:50:38.303Z,103448.56
2023-02-06T21:53:05.227Z,103447.78
2023-02-06T21:55:32.482Z,103445.28
2023-02-06T21:58:00.979Z,103442.84
2023-02-06T22:00:28.537Z,103448.00
2023-02-06T22:02:55.019Z,103434.50
2023-02-06T22:05:21.465Z,103448.84
2023-02-06T22:07:47.997Z,103444.56
2023-02-06T22:10:14.856Z,103451.47
2023-02-06T22:12:41.208Z,103451.75
2023-02-06T22:15:08.151Z,103457.50
2023-02-06T22:17:34.933Z,103461.22
2023-02-06T22:20:01.312Z,103459.91
2023-02-06T22:22:27.675Z,103463.88
2023-02-06T22:24:54.124Z,103469.50
2023-02-06T22:27:20.554Z,103460.97
2023-02-06T22:29:47.083Z,103454.88
2023-02-06T22:32:13.620Z,103444.06
2023-02-06T22:34:40.019Z,103427.25
2023-02-06T22:37:06.464Z,103435.09
2023-02-06T22:39:32.994Z,103448.00
2023-02-06T22:41:59.432Z,103452.06
2023-02-06T22:44:25.956Z,103453.28
2023-02-06T22:46:53.187Z,103440.25
2023-02-06T22:49:21.103Z,103459.41
2023-02-06T22:51:47.577Z,103465.00
2023-02-06T22:54:14.543Z,103445.78
2023-02-06T22:56:42.461Z,103430.88
2023-02-06T22:59:19.273Z,103437.34
2023-02-06T23:01:51.262Z,103437.59
2023-02-06T23:04:20.734Z,103446.00
2023-02-06T23:06:47.838Z,103443.31
2023-02-06T23:09:17.643Z,103450.47
2023-02-06T23:11:44.405Z,103455.50
2023-02-06T23:14:12.819Z,103445.88
2023-02-06T23:16:39.415Z,103442.84
2023-02-06T23:19:07.119Z,103446.75
2023-02-06T23:21:36.970Z,103454.66
2023-02-06T23:24:05.210Z,103447.00
2023-02-06T23:26:32.415Z,103444.69
2023-02-06T23:29:01.054Z,103450.41
2023-02-06T23:31:28.154Z,103451.63
2023-02-06T23:33:55.085Z,103444.94
2023-02-06T23:36:24.434Z,103457.47
2023-02-06T23:38:51.980Z,103457.47
2023-02-06T23:41:24.792Z,103459.91
2023-02-06T23:43:57.381Z,103447.38
2023-02-06T23:46:24.625Z,103456.50
2023-02-06T23:48:51.693Z,103471.47
2023-02-06T23:51:19.178Z,103472.22
2023-02-06T23:53:45.684Z,103464.19
2023-02-06T23:56:14.147Z,103484.16
2023-02-06T23:58:40.794Z,103477.72
